KDED/DED METAR and TAF weather

Enter ICAO airport designator
Station Type Date Time Source
KDED METAR 2021/05/14 04:15 UTC NOAA

KDED 140415Z AUTO 33007KT 10SM OVC023 19/16 A3015 RMK AO2 T01900160


Station Type Date Time Source
KDED Decoded METAR 2021/05/14 04:15 UTC NOAA

Station name not available
May 14, 2021 - 12:15 AM EDT / 2021.05.14 0415 UTC
Wind: from the NNW (330 degrees) at 8 MPH (7 KT):0
Visibility: 10 mile(s):0
Sky conditions: overcast
Temperature: 66.2 F (19.0 C)
Dew Point: 60.8 F (16.0 C)
Relative Humidity: 82%
Pressure (altimeter): 30.15 in. Hg (1020 hPa)
ob: KDED 140415Z AUTO 33007KT 10SM OVC023 19/16 A3015 RMK AO2 T01900160
cycle: 4

Station Type Date Time Source
KDED TAF UTC NOAA

Error!

Example: see airport list